createdAt,value
2024-04-30T00:01:31.190Z,4.22
2024-04-30T00:03:58.139Z,5.32
2024-04-30T00:06:24.942Z,7.97
2024-04-30T00:08:51.692Z,6.57
2024-04-30T00:11:18.558Z,2.72
2024-04-30T00:13:45.424Z,3.05
2024-04-30T00:16:12.242Z,3.30
2024-04-30T00:18:39.055Z,3.88
2024-04-30T00:21:05.891Z,4.70
2024-04-30T00:23:32.708Z,2.22
2024-04-30T00:25:59.489Z,4.20
2024-04-30T00:28:26.546Z,4.97
2024-04-30T00:30:53.429Z,2.97
2024-04-30T00:33:20.198Z,2.60
2024-04-30T00:35:46.959Z,2.97
2024-04-30T00:38:13.689Z,2.17
2024-04-30T00:40:40.533Z,2.53
2024-04-30T00:43:07.392Z,1.77
2024-04-30T00:45:34.146Z,3.03
2024-04-30T00:48:01.094Z,1.80
2024-04-30T00:50:28.213Z,3.70
2024-04-30T00:52:55.982Z,4.15
2024-04-30T00:55:22.815Z,8.43
2024-04-30T00:57:49.616Z,6.82
2024-04-30T01:00:16.559Z,3.17
2024-04-30T01:02:44.895Z,2.60
2024-04-30T01:05:11.882Z,4.13
2024-04-30T01:07:38.696Z,2.00
2024-04-30T01:10:06.626Z,3.17
2024-04-30T01:12:35.554Z,7.25
2024-04-30T01:15:03.134Z,3.67
2024-04-30T01:17:30.110Z,3.88
2024-04-30T01:19:56.948Z,5.40
2024-04-30T01:22:23.970Z,6.03
2024-04-30T01:24:50.815Z,3.58
2024-04-30T01:27:17.847Z,2.28
2024-04-30T01:29:44.579Z,3.47
2024-04-30T01:32:11.507Z,5.45
2024-04-30T01:34:39.055Z,3.83
2024-04-30T01:37:06.083Z,2.20
2024-04-30T01:39:32.833Z,2.13
2024-04-30T01:41:59.986Z,1.75
2024-04-30T01:44:26.729Z,8.65
2024-04-30T01:46:53.651Z,5.38
2024-04-30T01:49:20.390Z,4.97
2024-04-30T01:51:47.208Z,5.88
2024-04-30T01:54:14.384Z,6.60
2024-04-30T01:56:41.232Z,3.72
2024-04-30T01:59:07.966Z,3.42
2024-04-30T02:01:34.795Z,2.80
2024-04-30T02:04:01.647Z,1.95
2024-04-30T02:06:28.509Z,3.38
2024-04-30T02:08:55.560Z,4.93
2024-04-30T02:11:22.445Z,7.82
2024-04-30T02:13:49.354Z,4.68
2024-04-30T02:16:16.155Z,3.45
2024-04-30T02:18:42.935Z,3.95
2024-04-30T02:21:09.769Z,3.25
2024-04-30T02:23:36.531Z,4.80
2024-04-30T02:26:03.445Z,4.47
2024-04-30T02:28:30.687Z,3.83
2024-04-30T02:31:16.642Z,3.55
2024-04-30T02:34:01.949Z,3.92
2024-04-30T02:36:28.722Z,3.60
2024-04-30T02:38:55.586Z,4.15
2024-04-30T02:41:22.348Z,3.30
2024-04-30T02:43:49.113Z,2.63
2024-04-30T02:46:15.933Z,8.43
2024-04-30T02:48:42.726Z,6.10
2024-04-30T02:51:09.498Z,4.82
2024-04-30T02:53:36.238Z,3.05
2024-04-30T02:56:03.042Z,4.15
2024-04-30T02:58:29.865Z,2.35
2024-04-30T03:00:56.653Z,2.63
2024-04-30T03:03:23.509Z,4.70
2024-04-30T03:05:50.327Z,2.75
2024-04-30T03:08:17.953Z,3.17
2024-04-30T03:10:44.719Z,2.58
2024-04-30T03:13:11.757Z,4.65
2024-04-30T03:15:38.597Z,4.65
2024-04-30T03:18:05.808Z,6.78
2024-04-30T03:20:32.656Z,1.90
2024-04-30T03:22:59.385Z,4.65
2024-04-30T03:25:26.229Z,3.67
2024-04-30T03:27:53.111Z,5.80
2024-04-30T03:30:19.927Z,6.45
2024-04-30T03:32:46.762Z,3.33
2024-04-30T03:35:13.688Z,3.22
2024-04-30T03:37:40.479Z,4.68
2024-04-30T03:40:07.878Z,4.45
2024-04-30T03:42:34.707Z,3.42
2024-04-30T03:45:01.717Z,3.42
2024-04-30T03:47:28.597Z,4.85
2024-04-30T03:49:57.125Z,4.40
2024-04-30T03:52:25.417Z,4.03
2024-04-30T03:54:52.209Z,2.63
2024-04-30T03:57:19.018Z,4.25
2024-04-30T03:59:45.752Z,3.10
2024-04-30T04:02:12.585Z,4.30
2024-04-30T04:04:39.544Z,3.70
2024-04-30T04:07:06.396Z,4.95
2024-04-30T04:09:33.190Z,4.00
2024-04-30T04:12:18.444Z,12.90
2024-04-30T04:14:48.985Z,10.13
2024-04-30T04:17:16.720Z,7.82
2024-04-30T04:19:44.395Z,6.88
2024-04-30T04:22:11.466Z,6.57
2024-04-30T04:24:38.276Z,8.48
2024-04-30T04:27:05.765Z,4.68
2024-04-30T04:29:33.505Z,5.30
2024-04-30T04:32:01.283Z,7.00
2024-04-30T04:34:28.622Z,6.95
2024-04-30T04:36:55.534Z,7.22
2024-04-30T04:39:22.410Z,6.50
2024-04-30T04:41:49.230Z,7.88
2024-04-30T04:44:15.998Z,6.13
2024-04-30T04:46:42.909Z,8.60
2024-04-30T04:49:09.746Z,9.75
2024-04-30T04:51:36.580Z,10.23
2024-04-30T04:54:03.442Z,8.05
2024-04-30T04:56:30.214Z,9.05
2024-04-30T04:58:57.132Z,9.20
2024-04-30T05:01:24.097Z,7.32
2024-04-30T05:03:50.940Z,6.88
2024-04-30T05:06:17.818Z,7.00
2024-04-30T05:08:45.264Z,7.30
2024-04-30T05:11:15.824Z,8.27
2024-04-30T05:13:42.825Z,8.20
2024-04-30T05:16:09.880Z,13.90
2024-04-30T05:18:38.101Z,12.43
2024-04-30T05:21:05.919Z,7.30
2024-04-30T05:23:32.848Z,7.90
2024-04-30T05:25:59.816Z,6.25
2024-04-30T05:28:26.633Z,7.28
2024-04-30T05:30:53.726Z,6.97
2024-04-30T05:33:20.598Z,10.60
2024-04-30T05:35:47.467Z,6.22
2024-04-30T05:38:14.409Z,11.52
2024-04-30T05:40:41.350Z,8.00
2024-04-30T05:43:09.446Z,8.38
2024-04-30T05:45:36.471Z,6.88
2024-04-30T05:48:03.725Z,12.98
2024-04-30T05:50:33.562Z,7.85
2024-04-30T05:53:00.378Z,5.60
2024-04-30T05:55:27.184Z,8.77
2024-04-30T05:57:55.395Z,5.20
2024-04-30T06:00:22.205Z,10.25
2024-04-30T06:02:49.050Z,8.90
2024-04-30T06:05:16.148Z,7.95
2024-04-30T06:07:43.187Z,6.60
2024-04-30T06:10:10.016Z,9.80
2024-04-30T06:12:36.836Z,6.18
2024-04-30T06:15:03.806Z,4.93
2024-04-30T06:17:30.628Z,7.30
2024-04-30T06:19:57.486Z,5.03
2024-04-30T06:22:24.382Z,12.57
2024-04-30T06:24:51.218Z,10.13
2024-04-30T06:27:17.965Z,6.60
2024-04-30T06:29:44.724Z,6.32
2024-04-30T06:32:11.553Z,6.30
2024-04-30T06:34:40.379Z,8.77
2024-04-30T06:37:08.531Z,4.53
2024-04-30T06:39:35.286Z,6.53
2024-04-30T06:42:02.108Z,6.72
2024-04-30T06:44:28.842Z,6.97
2024-04-30T06:46:55.759Z,5.20
2024-04-30T06:49:24.912Z,5.35
2024-04-30T06:51:53.030Z,4.75
2024-04-30T06:54:19.817Z,6.40
2024-04-30T06:56:46.595Z,5.88
2024-04-30T06:59:13.351Z,5.78
2024-04-30T07:01:40.278Z,8.00
2024-04-30T07:04:07.222Z,4.32
2024-04-30T07:06:35.503Z,6.28
2024-04-30T07:09:02.571Z,8.43
2024-04-30T07:11:29.364Z,7.65
2024-04-30T07:13:56.174Z,4.65
2024-04-30T07:16:23.026Z,7.88
2024-04-30T07:18:49.839Z,5.63
2024-04-30T07:21:16.620Z,8.85
2024-04-30T07:23:43.429Z,5.38
2024-04-30T07:26:10.220Z,6.05
2024-04-30T07:28:37.094Z,7.43
2024-04-30T07:31:03.982Z,5.22
2024-04-30T07:33:30.837Z,8.93
2024-04-30T07:35:57.662Z,6.28
2024-04-30T07:38:24.512Z,5.70
2024-04-30T07:40:51.950Z,3.92
2024-04-30T07:43:18.813Z,5.57
2024-04-30T07:45:45.615Z,5.53
2024-04-30T07:48:12.653Z,7.68
2024-04-30T07:50:39.627Z,3.85
2024-04-30T07:53:06.388Z,10.63
2024-04-30T07:55:33.762Z,8.20
2024-04-30T07:58:00.622Z,6.22
2024-04-30T08:00:27.472Z,4.03
2024-04-30T08:02:54.368Z,5.07
2024-04-30T08:05:21.224Z,4.47
2024-04-30T08:07:48.143Z,6.68
2024-04-30T08:10:15.115Z,3.53
2024-04-30T08:12:41.892Z,6.75
2024-04-30T08:15:08.663Z,5.97
2024-04-30T08:17:37.019Z,3.95
2024-04-30T08:20:04.098Z,6.28
2024-04-30T08:22:31.229Z,7.50
2024-04-30T08:24:58.030Z,12.27
2024-04-30T08:27:26.952Z,4.40
2024-04-30T08:29:54.087Z,6.75
2024-04-30T08:32:21.382Z,5.65
2024-04-30T08:34:48.187Z,12.13
2024-04-30T08:37:15.076Z,5.97
2024-04-30T08:39:41.837Z,5.28
2024-04-30T08:42:09.041Z,9.25
2024-04-30T08:44:38.059Z,8.63
2024-04-30T08:47:06.691Z,8.23
2024-04-30T08:49:43.012Z,8.98
2024-04-30T08:52:16.497Z,10.18
2024-04-30T08:54:43.830Z,7.30
2024-04-30T08:57:10.720Z,7.00
2024-04-30T08:59:38.710Z,5.95
2024-04-30T09:02:06.344Z,8.43
2024-04-30T09:04:33.924Z,4.00
2024-04-30T09:07:00.723Z,5.18
2024-04-30T09:09:27.540Z,11.40
2024-04-30T09:11:54.417Z,5.53
2024-04-30T09:14:21.261Z,8.48
2024-04-30T09:16:50.287Z,8.38
2024-04-30T09:19:24.363Z,4.68
2024-04-30T09:21:51.835Z,5.13
2024-04-30T09:24:18.763Z,6.10
2024-04-30T09:26:51.880Z,9.35
2024-04-30T09:29:18.760Z,6.82
2024-04-30T09:31:48.604Z,9.07
2024-04-30T09:34:15.408Z,9.20
2024-04-30T09:36:42.293Z,6.47
2024-04-30T09:39:10.760Z,5.00
2024-04-30T09:41:38.995Z,8.75
2024-04-30T09:44:10.052Z,9.55
2024-04-30T09:46:37.413Z,5.78
2024-04-30T09:49:07.656Z,5.63
2024-04-30T09:51:39.829Z,5.55
2024-04-30T09:54:08.085Z,7.38
2024-04-30T09:56:34.862Z,6.90
2024-04-30T09:59:01.719Z,7.05
2024-04-30T10:01:30.651Z,6.82
2024-04-30T10:03:58.049Z,9.68
2024-04-30T10:06:26.501Z,10.02
2024-04-30T10:08:53.406Z,8.90
2024-04-30T10:11:20.219Z,9.23
2024-04-30T10:13:51.207Z,8.40
2024-04-30T10:16:19.165Z,6.50
2024-04-30T10:18:46.297Z,5.45
2024-04-30T10:21:13.872Z,6.13
2024-04-30T10:23:43.653Z,7.78
2024-04-30T10:26:11.076Z,8.55
2024-04-30T10:28:39.453Z,6.53
2024-04-30T10:31:10.563Z,6.63
2024-04-30T10:33:38.674Z,6.10
2024-04-30T10:36:09.015Z,11.48
2024-04-30T10:41:04.613Z,7.80
2024-04-30T10:43:31.522Z,8.60
2024-04-30T10:46:18.700Z,12.30
2024-04-30T10:48:53.269Z,6.70
2024-04-30T10:51:22.226Z,7.15
2024-04-30T10:53:53.006Z,7.20
2024-04-30T10:56:20.121Z,7.07
2024-04-30T10:58:57.948Z,6.75
2024-04-30T11:01:33.917Z,8.25
2024-04-30T11:04:11.909Z,9.90
2024-04-30T11:06:46.739Z,9.70
2024-04-30T11:09:15.686Z,12.07
2024-04-30T11:12:04.533Z,9.57
2024-04-30T11:14:44.727Z,11.10
2024-04-30T11:17:12.291Z,9.48
2024-04-30T11:19:41.665Z,14.23
2024-04-30T11:22:08.676Z,8.90
2024-04-30T11:24:35.476Z,10.50
2024-04-30T11:27:02.396Z,6.55
2024-04-30T11:29:35.194Z,7.43
2024-04-30T11:32:06.715Z,10.23
2024-04-30T11:34:33.644Z,6.93
2024-04-30T11:37:00.577Z,10.00
2024-04-30T11:39:27.308Z,10.77
2024-04-30T11:42:01.751Z,11.70
2024-04-30T11:44:40.150Z,7.93
2024-04-30T11:47:07.317Z,5.93
2024-04-30T11:49:35.400Z,8.63
2024-04-30T11:52:03.350Z,10.70
2024-04-30T11:54:30.844Z,7.32
2024-04-30T11:56:57.694Z,7.32
2024-04-30T11:59:24.488Z,7.80
2024-04-30T12:01:51.467Z,14.63
2024-04-30T12:04:18.383Z,5.47
2024-04-30T12:06:45.193Z,5.82
2024-04-30T12:09:11.961Z,10.20
2024-04-30T12:11:39.365Z,10.65
2024-04-30T12:14:06.330Z,10.13
2024-04-30T12:16:33.257Z,10.32
2024-04-30T12:19:00.347Z,9.50
2024-04-30T12:21:27.239Z,11.30
2024-04-30T12:23:55.581Z,15.25
2024-04-30T12:26:22.483Z,8.32
2024-04-30T12:28:49.333Z,7.10
2024-04-30T12:31:16.248Z,9.68
2024-04-30T12:33:43.157Z,10.75
2024-04-30T12:36:10.960Z,10.57
2024-04-30T12:38:38.815Z,18.30
2024-04-30T12:41:05.663Z,9.93
2024-04-30T12:43:35.501Z,8.45
2024-04-30T12:46:05.435Z,4.70
2024-04-30T12:48:32.812Z,12.55
2024-04-30T12:50:59.730Z,6.53
2024-04-30T12:53:26.518Z,14.00
2024-04-30T12:55:53.404Z,8.43
2024-04-30T12:58:20.191Z,9.27
2024-04-30T13:00:53.053Z,10.23
2024-04-30T13:03:20.355Z,11.35
2024-04-30T13:05:47.292Z,13.27
2024-04-30T13:08:14.115Z,5.95
2024-04-30T13:10:41.139Z,12.30
2024-04-30T13:13:08.024Z,9.00
2024-04-30T13:15:35.074Z,9.20
2024-04-30T13:18:02.043Z,9.27
2024-04-30T13:20:28.875Z,13.23
2024-04-30T13:22:55.614Z,10.32
2024-04-30T13:25:22.504Z,7.00
2024-04-30T13:27:49.493Z,7.78
2024-04-30T13:30:16.355Z,8.55
2024-04-30T13:32:44.090Z,8.73
2024-04-30T13:35:11.011Z,13.48
2024-04-30T13:37:39.486Z,6.47
2024-04-30T13:40:07.366Z,11.35
2024-04-30T13:42:34.343Z,15.73
2024-04-30T13:45:01.197Z,11.07
2024-04-30T13:47:28.147Z,10.63
2024-04-30T13:49:55.273Z,9.27
2024-04-30T13:52:22.308Z,8.10
2024-04-30T13:54:49.298Z,11.35
2024-04-30T13:57:16.258Z,11.55
2024-04-30T13:59:43.051Z,8.48
2024-04-30T14:02:14.558Z,7.28
2024-04-30T14:04:41.594Z,9.75
2024-04-30T14:07:08.497Z,8.65
2024-04-30T14:09:35.440Z,11.95
2024-04-30T14:12:03.083Z,10.10
2024-04-30T14:14:29.921Z,7.80
2024-04-30T14:16:56.751Z,10.90
2024-04-30T14:19:23.792Z,14.60
2024-04-30T14:21:50.667Z,10.38
2024-04-30T14:24:17.604Z,8.18
2024-04-30T14:26:45.783Z,13.15
2024-04-30T14:29:12.810Z,15.27
2024-04-30T14:31:41.077Z,11.88
2024-04-30T14:34:08.003Z,6.00
2024-04-30T14:36:36.620Z,10.18
2024-04-30T14:39:12.163Z,6.55
2024-04-30T14:41:40.440Z,9.82
2024-04-30T14:44:07.556Z,8.95
2024-04-30T14:46:34.670Z,7.40
2024-04-30T14:49:01.823Z,8.27
2024-04-30T14:51:41.649Z,8.52
2024-04-30T14:54:08.828Z,6.18
2024-04-30T14:56:37.203Z,5.50
2024-04-30T14:59:04.180Z,11.85
2024-04-30T15:01:30.997Z,12.18
2024-04-30T15:03:58.124Z,9.70
2024-04-30T15:06:25.404Z,11.85
2024-04-30T15:08:52.202Z,7.72
2024-04-30T15:11:22.329Z,9.40
2024-04-30T15:16:17.508Z,9.68
2024-04-30T15:18:45.332Z,9.30
2024-04-30T15:21:12.308Z,10.23
2024-04-30T15:23:45.972Z,8.35
2024-04-30T15:26:14.875Z,7.60
2024-04-30T15:28:44.655Z,10.57
2024-04-30T15:31:18.361Z,7.95
2024-04-30T15:33:45.549Z,7.55
2024-04-30T15:36:12.867Z,9.88
2024-04-30T15:38:40.022Z,8.50
2024-04-30T15:41:07.086Z,7.93
2024-04-30T15:43:36.305Z,15.45
2024-04-30T15:46:04.314Z,8.13
2024-04-30T15:48:31.435Z,8.95
2024-04-30T15:51:04.191Z,8.50
2024-04-30T15:53:31.211Z,7.55
2024-04-30T15:56:09.308Z,9.43
2024-04-30T15:58:45.392Z,7.60
2024-04-30T16:01:12.602Z,6.80
2024-04-30T16:03:39.532Z,5.60
2024-04-30T16:06:09.142Z,9.20
2024-04-30T16:08:38.942Z,10.68
2024-04-30T16:11:10.079Z,10.00
2024-04-30T16:13:38.950Z,8.40
2024-04-30T16:16:12.745Z,5.15
2024-04-30T16:18:45.512Z,9.07
2024-04-30T16:21:12.894Z,14.68
2024-04-30T16:23:39.776Z,6.70
2024-04-30T16:26:07.294Z,7.72
2024-04-30T16:28:41.601Z,6.60
2024-04-30T16:31:10.256Z,11.38
2024-04-30T16:33:38.165Z,7.80
2024-04-30T16:36:05.514Z,10.32
2024-04-30T16:38:32.295Z,10.20
2024-04-30T16:40:59.087Z,11.30
2024-04-30T16:43:25.839Z,9.18
2024-04-30T16:45:52.619Z,10.02
2024-04-30T16:48:19.491Z,8.70
2024-04-30T16:50:46.409Z,13.35
2024-04-30T16:53:13.209Z,10.52
2024-04-30T16:55:40.009Z,9.98
2024-04-30T16:58:06.758Z,13.48
2024-04-30T17:00:33.685Z,7.50
2024-04-30T17:03:00.782Z,11.10
2024-04-30T17:05:28.053Z,10.73
2024-04-30T17:07:55.242Z,11.20
2024-04-30T17:10:22.031Z,5.13
2024-04-30T17:12:50.219Z,9.13
2024-04-30T17:15:17.151Z,11.00
2024-04-30T17:17:44.121Z,13.82
2024-04-30T17:20:10.925Z,11.98
2024-04-30T17:22:37.727Z,10.38
2024-04-30T17:25:04.804Z,11.43
2024-04-30T17:27:31.643Z,7.65
2024-04-30T17:29:58.510Z,11.30
2024-04-30T17:32:25.479Z,9.80
2024-04-30T17:34:52.337Z,10.68
2024-04-30T17:37:19.211Z,9.70
2024-04-30T17:39:46.079Z,10.75
2024-04-30T17:42:12.913Z,10.57
2024-04-30T17:44:40.005Z,10.35
2024-04-30T17:47:07.263Z,9.63
2024-04-30T17:49:34.185Z,9.88
2024-04-30T17:52:01.117Z,7.03
2024-04-30T17:54:28.131Z,10.32
2024-04-30T17:56:54.951Z,9.52
2024-04-30T17:59:21.783Z,8.38
2024-04-30T18:01:48.955Z,9.45
2024-04-30T18:04:18.019Z,10.85
2024-04-30T18:06:45.134Z,8.20
2024-04-30T18:09:12.080Z,6.75
2024-04-30T18:11:39.709Z,6.40
2024-04-30T18:14:06.609Z,7.28
2024-04-30T18:16:33.433Z,9.82
2024-04-30T18:19:01.191Z,10.15
2024-04-30T18:21:34.890Z,5.60
2024-04-30T18:24:03.861Z,5.15
2024-04-30T18:26:30.746Z,10.38
2024-04-30T18:28:59.444Z,6.93
2024-04-30T18:31:28.181Z,9.88
2024-04-30T18:33:55.934Z,6.05
2024-04-30T18:36:25.607Z,9.32
2024-04-30T18:38:52.808Z,11.48
2024-04-30T18:41:25.202Z,12.40
2024-04-30T18:43:57.198Z,7.22
2024-04-30T18:46:24.117Z,8.13
2024-04-30T18:48:51.517Z,7.38
2024-04-30T18:51:18.730Z,10.35
2024-04-30T18:53:45.776Z,11.25
2024-04-30T18:56:18.039Z,14.30
2024-04-30T18:58:46.504Z,14.88
2024-04-30T19:01:14.276Z,12.02
2024-04-30T19:03:41.836Z,11.00
2024-04-30T19:06:10.137Z,6.68
2024-04-30T19:08:37.371Z,12.07
2024-04-30T19:11:05.532Z,8.82
2024-04-30T19:13:33.190Z,15.07
2024-04-30T19:16:04.407Z,12.77
2024-04-30T19:18:32.701Z,13.18
2024-04-30T19:21:02.253Z,16.73
2024-04-30T19:23:30.994Z,10.47
2024-04-30T19:26:01.137Z,15.60
2024-04-30T19:28:28.700Z,16.55
2024-04-30T19:30:55.823Z,18.45
2024-04-30T19:33:22.947Z,18.40
2024-04-30T19:35:49.911Z,29.45
2024-04-30T19:38:17.750Z,25.00
2024-04-30T19:40:45.220Z,23.98
2024-04-30T19:43:15.780Z,27.77
2024-04-30T19:45:42.987Z,26.73
2024-04-30T19:48:15.387Z,17.90
2024-04-30T19:50:44.800Z,27.38
2024-04-30T19:53:11.569Z,25.63
2024-04-30T19:55:38.340Z,25.02
2024-04-30T19:58:05.221Z,22.17
2024-04-30T20:00:32.060Z,20.25
2024-04-30T20:02:59.416Z,24.55
2024-04-30T20:05:26.278Z,16.45
2024-04-30T20:07:53.140Z,21.95
2024-04-30T20:10:20.018Z,19.13
2024-04-30T20:12:46.889Z,22.83
2024-04-30T20:15:13.724Z,21.40
2024-04-30T20:17:40.478Z,17.35
2024-04-30T20:20:07.439Z,27.80
2024-04-30T20:22:34.203Z,19.92
2024-04-30T20:25:01.045Z,17.15
2024-04-30T20:27:27.902Z,26.77
2024-04-30T20:29:54.716Z,21.65
2024-04-30T20:32:21.603Z,22.75
2024-04-30T20:34:48.483Z,20.58
2024-04-30T20:37:15.215Z,20.88
2024-04-30T20:39:42.054Z,24.50
2024-04-30T20:42:08.872Z,33.72
2024-04-30T20:44:35.683Z,24.52
2024-04-30T20:47:02.499Z,25.10
2024-04-30T20:49:29.335Z,26.83
2024-04-30T20:51:56.378Z,22.48
2024-04-30T20:54:23.375Z,22.48
2024-04-30T20:56:50.361Z,22.48
2024-04-30T20:59:17.288Z,28.00
2024-04-30T21:01:44.349Z,29.58
2024-04-30T21:04:11.320Z,18.75
2024-04-30T21:06:39.018Z,22.98
2024-04-30T21:09:05.835Z,20.23
2024-04-30T21:11:32.727Z,21.50
2024-04-30T21:13:59.523Z,18.70
2024-04-30T21:16:26.704Z,23.42
2024-04-30T21:18:53.879Z,18.35
2024-04-30T21:21:21.128Z,18.95
2024-04-30T21:23:47.941Z,22.85
2024-04-30T21:26:14.765Z,27.67
2024-04-30T21:28:41.580Z,24.73
2024-04-30T21:31:08.550Z,24.60
2024-04-30T21:33:35.637Z,27.83
2024-04-30T21:36:06.093Z,23.90
2024-04-30T21:38:34.746Z,26.83
2024-04-30T21:41:01.535Z,17.17
2024-04-30T21:43:28.309Z,28.25
2024-04-30T21:45:55.203Z,22.88
2024-04-30T21:48:22.358Z,28.40
2024-04-30T21:50:49.211Z,24.40
2024-04-30T21:53:15.962Z,28.33
2024-04-30T21:55:42.739Z,34.47
2024-04-30T21:58:09.474Z,21.08
2024-04-30T22:00:36.316Z,23.30
2024-04-30T22:03:04.036Z,27.20
2024-04-30T22:05:31.144Z,19.85
2024-04-30T22:07:58.014Z,23.42
2024-04-30T22:10:24.900Z,24.90
2024-04-30T22:12:51.833Z,20.55
2024-04-30T22:15:19.282Z,19.40
2024-04-30T22:17:47.096Z,20.45
2024-04-30T22:20:14.274Z,25.52
2024-04-30T22:22:41.118Z,28.10
2024-04-30T22:25:07.927Z,28.65
2024-04-30T22:27:35.107Z,31.90
2024-04-30T22:30:09.197Z,35.20
2024-04-30T22:32:44.856Z,31.13
2024-04-30T22:35:12.149Z,20.88
2024-04-30T22:37:39.217Z,19.13
2024-04-30T22:40:06.954Z,20.95
2024-04-30T22:42:33.975Z,22.27
2024-04-30T22:45:00.946Z,21.70
2024-04-30T22:47:27.950Z,28.02
2024-04-30T22:49:54.835Z,23.05
2024-04-30T22:52:21.664Z,22.15
2024-04-30T22:54:51.122Z,22.75
2024-04-30T22:57:18.710Z,29.13
2024-04-30T22:59:45.803Z,23.40
2024-04-30T23:02:12.764Z,26.90
2024-04-30T23:04:39.698Z,23.35
2024-04-30T23:07:06.502Z,31.13
2024-04-30T23:09:33.463Z,23.63
2024-04-30T23:12:00.552Z,19.38
2024-04-30T23:14:27.407Z,24.27
2024-04-30T23:16:54.242Z,20.40
2024-04-30T23:19:21.099Z,25.70
2024-04-30T23:21:48.407Z,16.30
2024-04-30T23:24:15.200Z,21.20
2024-04-30T23:26:41.975Z,18.73
2024-04-30T23:29:08.764Z,18.15
2024-04-30T23:31:36.587Z,21.77
2024-04-30T23:34:03.438Z,20.55
2024-04-30T23:36:30.348Z,19.23
2024-04-30T23:38:57.196Z,19.98
2024-04-30T23:41:23.971Z,24.85
2024-04-30T23:43:50.845Z,21.08
2024-04-30T23:46:17.744Z,18.50
2024-04-30T23:48:45.207Z,17.90
2024-04-30T23:51:12.873Z,21.55
2024-04-30T23:53:43.385Z,20.73
2024-04-30T23:56:10.821Z,22.52
2024-04-30T23:58:37.576Z,21.95
